Time;durP1;ratioP1;P1;durP2;ratioP2;P2;SDS_P1;SDS_P2;PMS_P1;PMS_P2;Temp;Humidity;BMP_temperature;BMP_pressure;BME280_temperature;BME280_humidity;BME280_pressure;Samples;Min_cycle;Max_cycle;Signal;HPM_P1;HPM_P2
2022/11/30 00:07:53;;;;;;;;;;;;;;;;;;;;;
2022/11/30 00:10:28;;;;;;;24.98;9.30;;;;;;;;;;5006758;28;20045;-69
2022/11/30 00:13:32;;;;;;;;;;;;;;;;;;;;;
2022/11/30 00:16:33;;;;;;;10.52;5.30;;;;;;;;;;5036781;28;20060;-69
2022/11/30 00:25:33;;;;;;;8.27;3.90;;;;;;;;;;5002128;28;20030;-69
2022/11/30 00:41:50;;;;;;;20.83;9.65;;;;;;;;;;4842699;29;20046;-69
2022/11/30 00:44:59;;;;;;;9.25;4.35;;;;;;;;;;4827142;29;20517;-69
2022/11/30 00:47:41;;;;;;;;;;;;;;;;;;;;;
2022/11/30 01:06:14;;;;;;;12.43;5.93;;;;;;;;;;4846755;29;20045;-70
2022/11/30 01:08:51;;;;;;;17.67;6.78;;;;;;;;;;4917167;29;20040;-69
2022/11/30 01:11:50;;;;;;;34.50;14.07;;;;;;;;;;4986901;28;20064;-69
2022/11/30 01:14:49;;;;;;;;;;;;;;;;;;;;;
2022/11/30 01:17:36;;;;;;;31.52;15.93;;;;;;;;;;5013069;28;20034;-69
2022/11/30 01:22:52;;;;;;;16.00;7.20;;;;;;;;;;5003065;28;20435;-69
2022/11/30 01:25:23;;;;;;;17.17;6.68;;;;;;;;;;5013497;28;20048;-69
2022/11/30 01:28:00;;;;;;;10.30;6.50;;;;;;;;;;5012685;28;20060;-69
2022/11/30 01:30:35;;;;;;;12.30;5.65;;;;;;;;;;5011900;28;20034;-69
2022/11/30 01:33:04;;;;;;;11.55;6.15;;;;;;;;;;5013047;28;20048;-69
2022/11/30 01:35:35;;;;;;;9.20;4.63;;;;;;;;;;5012980;28;20037;-69
2022/11/30 01:38:11;;;;;;;12.20;5.53;;;;;;;;;;5012819;28;20385;-69
2022/11/30 01:41:20;;;;;;;10.15;5.22;;;;;;;;;;5013156;28;20038;-69
2022/11/30 01:44:25;;;;;;;9.70;4.47;;;;;;;;;;4952875;28;20053;-69
2022/11/30 01:47:35;;;;;;;10.02;5.68;;;;;;;;;;4999466;28;20037;-69
2022/11/30 01:50:07;;;;;;;14.65;9.02;;;;;;;;;;4939078;29;20051;-69
2022/11/30 01:53:09;;;;;;;13.07;6.82;;;;;;;;;;4938147;29;20039;-69
2022/11/30 01:55:41;;;;;;;9.20;4.93;;;;;;;;;;5000201;28;20040;-69
2022/11/30 01:58:36;;;;;;;;;;;;;;;;;;;;;
2022/11/30 02:01:22;;;;;;;10.68;4.80;;;;;;;;;;5034689;28;20039;-69
2022/11/30 02:03:53;;;;;;;9.98;3.30;;;;;;;;;;5016805;28;20072;-69
2022/11/30 02:06:21;;;;;;;;;;;;;;;;;;5034448;28;20465;-69
2022/11/30 02:09:35;;;;;;;9.57;4.60;;;;;;;;;;5033218;28;19917;-69
2022/11/30 02:28:32;;;;;;;7.90;3.67;;;;;;;;;;5034039;28;20057;-69
2022/11/30 02:40:54;;;;;;;;;;;;;;;;;;;;;
2022/11/30 02:50:10;;;;;;;5.03;3.33;;;;;;;;;;4954273;29;20054;-69
2022/11/30 02:59:00;;;;;;;8.00;3.90;;;;;;;;;;5033804;28;20079;-69
2022/11/30 03:01:35;;;;;;;5.82;3.42;;;;;;;;;;4992442;28;20050;-69
2022/11/30 03:07:07;;;;;;;4.60;2.85;;;;;;;;;;4934266;29;20030;-69
2022/11/30 03:09:38;;;;;;;5.20;2.70;;;;;;;;;;4934444;29;20059;-69
2022/11/30 03:25:02;;;;;;;6.03;2.95;;;;;;;;;;4877791;29;20081;-69
2022/11/30 03:33:54;;;;;;;7.25;2.50;;;;;;;;;;4950625;28;20221;-69
2022/11/30 03:36:45;;;;;;;8.48;3.80;;;;;;;;;;4995719;28;20555;-69
2022/11/30 03:43:13;;;;;;;;;;;;;;;;;;;;;
2022/11/30 03:58:20;;;;;;;5.38;3.00;;;;;;;;;;4858678;29;20076;-69
2022/11/30 04:04:17;;;;;;;5.43;2.70;;;;;;;;;;4938415;28;20529;-69
2022/11/30 04:43:39;;;;;;;5.18;3.47;;;;;;;;;;4918101;29;20044;-69
2022/11/30 04:46:45;;;;;;;8.48;3.17;;;;;;;;;;4883928;29;20081;-69
2022/11/30 04:49:42;;;;;;;;;;;;;;;;;;;;;
2022/11/30 04:59:14;;;;;;;7.18;3.00;;;;;;;;;;4803395;29;20030;-69
2022/11/30 05:01:53;;;;;;;5.35;2.72;;;;;;;;;;4843106;29;20050;-69
2022/11/30 05:04:32;;;;;;;;;;;;;;;;;;;;;
2022/11/30 05:07:39;;;;;;;;;;;;;;;;;;;;;
2022/11/30 05:16:04;;;;;;;6.07;3.53;;;;;;;;;;5015897;28;20053;-69
2022/11/30 05:18:30;;;;;;;6.03;2.42;;;;;;;;;;5016005;28;20103;-69
2022/11/30 05:24:31;;;;;;;3.22;2.30;;;;;;;;;;5007841;28;20038;-69
2022/11/30 05:27:13;;;;;;;;;;;;;;;;;;;;;
2022/11/30 05:29:51;;;;;;;5.38;2.20;;;;;;;;;;5016007;28;20049;-69
2022/11/30 05:33:09;;;;;;;4.03;2.10;;;;;;;;;;4997580;28;20042;-69
2022/11/30 05:35:35;;;;;;;;;;;;;;;;;;5013720;28;20038;-70
2022/11/30 05:38:15;;;;;;;3.20;1.95;;;;;;;;;;5015552;28;19909;-70
2022/11/30 05:40:48;;;;;;;3.75;2.25;;;;;;;;;;4997611;28;20382;-70
2022/11/30 05:43:23;;;;;;;5.47;3.65;;;;;;;;;;4997768;28;20165;-70
2022/11/30 05:45:51;;;;;;;4.80;2.15;;;;;;;;;;4996969;28;20053;-70
2022/11/30 05:48:20;;;;;;;5.05;2.00;;;;;;;;;;5014900;28;20081;-70
2022/11/30 05:50:49;;;;;;;3.03;2.35;;;;;;;;;;5015231;28;20500;-70
2022/11/30 05:53:18;;;;;;;5.00;2.63;;;;;;;;;;5015313;28;20042;-69
2022/11/30 05:55:47;;;;;;;4.60;2.40;;;;;;;;;;5015411;28;20045;-70
2022/11/30 05:58:13;;;;;;;4.00;2.05;;;;;;;;;;5015240;28;20042;-70
2022/11/30 06:00:41;;;;;;;2.42;1.90;;;;;;;;;;5015415;28;20621;-70
2022/11/30 06:03:13;;;;;;;9.50;1.90;;;;;;;;;;4997789;28;20037;-70
2022/11/30 06:05:42;;;;;;;8.38;2.40;;;;;;;;;;5017904;28;20058;-70
2022/11/30 06:08:10;;;;;;;6.28;2.35;;;;;;;;;;5017224;28;20037;-70
2022/11/30 06:10:36;;;;;;;3.63;2.10;;;;;;;;;;5035656;28;20079;-69
2022/11/30 06:13:07;;;;;;;11.90;3.22;;;;;;;;;;5017733;28;20042;-70
2022/11/30 06:15:35;;;;;;;4.80;2.67;;;;;;;;;;5015329;28;20492;-70
2022/11/30 06:18:14;;;;;;;4.35;1.83;;;;;;;;;;5017248;28;20369;-70
2022/11/30 06:20:44;;;;;;;6.00;1.92;;;;;;;;;;5016751;28;20037;-70
2022/11/30 06:23:13;;;;;;;4.20;1.93;;;;;;;;;;5016690;28;20088;-69
2022/11/30 06:25:41;;;;;;;5.50;1.73;;;;;;;;;;5035201;28;20095;-70
2022/11/30 06:28:11;;;;;;;3.05;1.65;;;;;;;;;;5034147;28;20048;-69
2022/11/30 06:30:42;;;;;;;2.88;1.80;;;;;;;;;;5017130;28;20044;-70
2022/11/30 06:33:12;;;;;;;3.47;2.05;;;;;;;;;;5035237;28;20504;-69
2022/11/30 06:35:57;;;;;;;;;;;;;;;;;;;;;
2022/11/30 06:38:53;;;;;;;4.38;2.05;;;;;;;;;;5031109;28;20033;-69
2022/11/30 06:41:53;;;;;;;3.92;2.00;;;;;;;;;;4987844;28;20059;-70
2022/11/30 06:44:29;;;;;;;7.65;1.98;;;;;;;;;;5016245;28;20041;-70
2022/11/30 06:46:55;;;;;;;4.22;1.90;;;;;;;;;;5033793;28;20051;-70
2022/11/30 06:49:21;;;;;;;3.28;1.67;;;;;;;;;;5015970;28;20060;-69
2022/11/30 06:51:55;;;;;;;1.98;1.50;;;;;;;;;;5033911;28;20073;-70
2022/11/30 06:54:24;;;;;;;4.45;2.17;;;;;;;;;;5033945;28;20088;-69
2022/11/30 06:56:53;;;;;;;3.28;2.10;;;;;;;;;;5015744;28;20087;-69
2022/11/30 06:59:21;;;;;;;4.93;2.15;;;;;;;;;;5033583;28;20132;-69
2022/11/30 07:01:50;;;;;;;4.60;2.00;;;;;;;;;;5034893;28;20543;-70
2022/11/30 07:04:21;;;;;;;5.03;2.20;;;;;;;;;;5034615;28;20043;-70
2022/11/30 07:06:47;;;;;;;7.18;2.75;;;;;;;;;;5021382;28;20062;-69
2022/11/30 07:09:14;;;;;;;5.03;2.60;;;;;;;;;;5029823;28;20045;-69
2022/11/30 07:11:40;;;;;;;4.88;2.50;;;;;;;;;;5014494;28;20148;-70
2022/11/30 07:14:06;;;;;;;10.82;3.10;;;;;;;;;;5028435;28;20068;-70
2022/11/30 07:16:32;;;;;;;8.57;3.20;;;;;;;;;;5054076;28;20116;-70
2022/11/30 07:18:58;;;;;;;4.35;3.08;;;;;;;;;;5054679;28;20053;-70
2022/11/30 07:21:24;;;;;;;4.35;3.33;;;;;;;;;;5054276;28;20044;-70
2022/11/30 07:26:35;;;;;;;10.60;7.10;;;;;;;;;;5035399;28;20159;-68
2022/11/30 07:29:04;;;;;;;11.95;6.55;;;;;;;;;;5029430;28;20124;-69
2022/11/30 07:31:32;;;;;;;10.05;4.97;;;;;;;;;;5022739;28;20119;-69
2022/11/30 07:33:59;;;;;;;8.02;4.32;;;;;;;;;;5033287;28;20623;-69
2022/11/30 07:36:26;;;;;;;5.07;3.10;;;;;;;;;;5033889;28;20041;-69
2022/11/30 07:38:52;;;;;;;5.63;3.35;;;;;;;;;;5021913;28;20052;-69
2022/11/30 07:41:18;;;;;;;8.45;4.78;;;;;;;;;;5036774;28;20516;-69
2022/11/30 07:43:49;;;;;;;7.07;4.18;;;;;;;;;;5036955;28;20167;-69
2022/11/30 07:46:15;;;;;;;7.57;4.70;;;;;;;;;;5018578;28;20035;-69
2022/11/30 07:48:42;;;;;;;4.97;4.00;;;;;;;;;;5035046;28;20034;-69
2022/11/30 07:51:11;;;;;;;5.85;3.92;;;;;;;;;;5035056;28;20127;-69
2022/11/30 07:53:37;;;;;;;6.68;4.70;;;;;;;;;;5035321;28;20095;-69
2022/11/30 07:56:05;;;;;;;5.78;4.20;;;;;;;;;;5023290;28;20045;-69
2022/11/30 07:58:31;;;;;;;6.55;3.75;;;;;;;;;;5024543;28;20041;-69
2022/11/30 08:01:04;;;;;;;10.95;4.88;;;;;;;;;;5037331;28;20083;-69
2022/11/30 08:03:31;;;;;;;8.68;4.25;;;;;;;;;;5039761;28;20037;-69
2022/11/30 08:06:01;;;;;;;5.47;3.97;;;;;;;;;;5057175;28;20144;-69
2022/11/30 08:08:31;;;;;;;13.43;6.80;;;;;;;;;;5056991;28;20072;-68
2022/11/30 08:10:57;;;;;;;9.73;5.47;;;;;;;;;;5057549;28;20065;-68
2022/11/30 08:13:24;;;;;;;7.50;3.72;;;;;;;;;;5058113;28;20471;-68
2022/11/30 08:15:50;;;;;;;8.80;4.13;;;;;;;;;;5057140;28;20067;-69
2022/11/30 08:18:16;;;;;;;5.80;4.65;;;;;;;;;;5057378;28;20075;-69
2022/11/30 08:20:42;;;;;;;7.45;3.60;;;;;;;;;;5057024;28;20387;-68
2022/11/30 08:23:08;;;;;;;8.35;4.60;;;;;;;;;;5056925;28;20045;-68
2022/11/30 08:25:35;;;;;;;5.68;4.22;;;;;;;;;;5057439;28;20041;-68
2022/11/30 08:28:01;;;;;;;6.13;4.00;;;;;;;;;;5056820;28;20036;-68
2022/11/30 08:30:27;;;;;;;5.40;2.97;;;;;;;;;;5039132;28;20502;-69
2022/11/30 08:32:53;;;;;;;4.63;3.13;;;;;;;;;;5056823;28;20045;-69
2022/11/30 08:35:19;;;;;;;7.22;3.70;;;;;;;;;;5056755;28;20041;-68
2022/11/30 08:37:45;;;;;;;7.00;3.42;;;;;;;;;;5056589;28;20041;-68
2022/11/30 08:40:11;;;;;;;3.58;2.90;;;;;;;;;;5056993;28;20049;-69
2022/11/30 08:42:38;;;;;;;3.53;3.00;;;;;;;;;;5056922;28;20052;-69
2022/11/30 08:45:04;;;;;;;3.03;2.40;;;;;;;;;;5056494;28;20033;-69
2022/11/30 08:47:30;;;;;;;2.92;2.50;;;;;;;;;;5056928;28;20064;-69
2022/11/30 08:49:57;;;;;;;3.95;2.55;;;;;;;;;;5057153;28;20051;-69
2022/11/30 08:52:23;;;;;;;5.65;2.97;;;;;;;;;;5055102;28;20052;-69
2022/11/30 08:54:49;;;;;;;3.38;2.75;;;;;;;;;;5056430;28;20519;-69
2022/11/30 08:57:16;;;;;;;3.00;2.30;;;;;;;;;;5056656;28;20037;-69
2022/11/30 08:59:43;;;;;;;4.20;2.60;;;;;;;;;;5056220;28;20045;-69
2022/11/30 09:02:10;;;;;;;4.20;2.00;;;;;;;;;;5049818;28;20045;-69
2022/11/30 09:04:36;;;;;;;4.15;2.30;;;;;;;;;;5033794;28;20049;-68
2022/11/30 09:07:03;;;;;;;5.03;2.70;;;;;;;;;;5018313;28;20085;-67
2022/11/30 09:09:29;;;;;;;4.18;2.22;;;;;;;;;;5039817;28;20496;-68
2022/11/30 09:11:55;;;;;;;3.63;1.63;;;;;;;;;;5035149;28;20586;-68
2022/11/30 09:14:21;;;;;;;4.45;2.38;;;;;;;;;;5035417;28;20042;-68
2022/11/30 09:16:47;;;;;;;2.70;1.90;;;;;;;;;;5035324;28;20041;-69
2022/11/30 09:32:15;;;;;;;7.78;3.92;;;;;;;;;;4855134;29;20121;-69
2022/11/30 09:35:21;;;;;;;;;;;;;;;;;;;;;
2022/11/30 09:53:57;;;;;;;12.25;6.55;;;;;;;;;;4915478;29;20036;-68
2022/11/30 09:56:26;;;;;;;12.45;6.03;;;;;;;;;;4916455;29;20044;-69
2022/11/30 09:58:55;;;;;;;9.27;6.40;;;;;;;;;;5002051;28;20045;-69
2022/11/30 10:01:21;;;;;;;10.10;7.28;;;;;;;;;;5030945;28;20057;-69
2022/11/30 10:03:48;;;;;;;7.20;5.22;;;;;;;;;;5015050;28;20038;-69
2022/11/30 10:06:22;;;;;;;12.85;6.63;;;;;;;;;;5033680;28;20134;-69
2022/11/30 10:08:51;;;;;;;19.75;9.20;;;;;;;;;;5027633;28;20053;-68
2022/11/30 10:11:23;;;;;;;14.10;7.30;;;;;;;;;;5015779;28;20052;-68
2022/11/30 10:13:58;;;;;;;25.80;12.25;;;;;;;;;;5033895;28;20048;-68
2022/11/30 10:16:50;;;;;;;16.52;8.27;;;;;;;;;;5033513;28;20037;-68
2022/11/30 10:19:17;;;;;;;8.68;5.20;;;;;;;;;;4990838;28;20128;-68
2022/11/30 10:21:51;;;;;;;9.20;5.47;;;;;;;;;;5014881;28;20038;-68
2022/11/30 10:24:35;;;;;;;13.25;7.15;;;;;;;;;;5014286;28;20038;-68
2022/11/30 10:27:11;;;;;;;8.27;4.93;;;;;;;;;;5013907;28;20029;-68
2022/11/30 10:29:39;;;;;;;6.28;4.57;;;;;;;;;;5023211;28;20053;-68
2022/11/30 10:32:20;;;;;;;5.05;3.92;;;;;;;;;;5033488;28;20041;-68
2022/11/30 10:34:48;;;;;;;6.53;4.35;;;;;;;;;;5022717;28;20041;-68
2022/11/30 10:37:14;;;;;;;6.40;4.55;;;;;;;;;;5028562;28;20065;-68
2022/11/30 10:39:59;;;;;;;8.55;5.32;;;;;;;;;;5033004;28;20072;-68
2022/11/30 10:42:44;;;;;;;14.52;8.85;;;;;;;;;;5032904;28;20495;-68
2022/11/30 10:45:11;;;;;;;15.32;8.55;;;;;;;;;;5033559;28;20522;-68
2022/11/30 10:47:41;;;;;;;11.75;6.47;;;;;;;;;;5033013;28;20508;-68
2022/11/30 10:50:07;;;;;;;9.85;5.18;;;;;;;;;;5033267;28;20385;-68
2022/11/30 10:52:51;;;;;;;8.52;4.78;;;;;;;;;;5032672;28;20048;-66
2022/11/30 10:55:19;;;;;;;9.32;4.50;;;;;;;;;;5032204;28;20547;-68
2022/11/30 10:57:47;;;;;;;3.58;2.80;;;;;;;;;;5033545;28;20119;-69
2022/11/30 11:00:17;;;;;;;6.35;3.60;;;;;;;;;;5032453;28;20038;-69
2022/11/30 11:02:50;;;;;;;9.05;3.92;;;;;;;;;;5033044;28;20041;-69
2022/11/30 11:05:17;;;;;;;8.82;4.25;;;;;;;;;;5033431;28;20057;-70
2022/11/30 11:07:49;;;;;;;6.47;3.17;;;;;;;;;;5032604;28;20033;-68
2022/11/30 11:10:16;;;;;;;5.72;3.67;;;;;;;;;;5032562;28;20191;-68
2022/11/30 11:12:46;;;;;;;6.53;3.63;;;;;;;;;;5033273;28;20539;-68
2022/11/30 11:15:21;;;;;;;4.72;3.30;;;;;;;;;;5034759;28;20049;-68
2022/11/30 11:17:48;;;;;;;7.55;5.20;;;;;;;;;;5037305;28;20048;-68
2022/11/30 11:20:26;;;;;;;11.13;7.65;;;;;;;;;;5037694;28;20049;-68
2022/11/30 11:22:52;;;;;;;8.23;4.45;;;;;;;;;;5036137;28;20068;-68
2022/11/30 11:25:22;;;;;;;5.72;3.60;;;;;;;;;;5036594;28;20049;-68
2022/11/30 11:27:52;;;;;;;4.85;3.10;;;;;;;;;;5036748;28;20037;-68
2022/11/30 11:30:28;;;;;;;11.48;4.60;;;;;;;;;;5036342;28;20049;-68
2022/11/30 11:32:59;;;;;;;7.45;4.22;;;;;;;;;;5036963;28;20041;-68
2022/11/30 11:35:36;;;;;;;6.70;3.33;;;;;;;;;;5036714;28;20053;-68
2022/11/30 11:38:03;;;;;;;6.28;3.17;;;;;;;;;;5035536;28;20030;-68
2022/11/30 11:40:29;;;;;;;5.35;3.15;;;;;;;;;;5036706;28;20518;-68
2022/11/30 11:42:57;;;;;;;4.93;2.10;;;;;;;;;;5036435;28;20075;-69
2022/11/30 11:45:27;;;;;;;4.07;1.65;;;;;;;;;;5036609;28;20045;-69
2022/11/30 11:48:20;;;;;;;5.40;2.85;;;;;;;;;;5037224;28;20072;-69
2022/11/30 11:50:56;;;;;;;3.20;2.13;;;;;;;;;;5001165;28;20041;-69
2022/11/30 11:53:24;;;;;;;3.47;1.90;;;;;;;;;;5038383;28;20064;-69
2022/11/30 11:55:50;;;;;;;6.70;2.67;;;;;;;;;;5036908;28;20076;-69
2022/11/30 11:58:21;;;;;;;3.60;2.05;;;;;;;;;;5036988;28;20044;-69
2022/11/30 12:00:48;;;;;;;3.55;1.70;;;;;;;;;;5027479;28;20057;-68
2022/11/30 12:03:19;;;;;;;3.05;2.15;;;;;;;;;;5033733;28;20108;-69
2022/11/30 12:05:54;;;;;;;3.65;1.88;;;;;;;;;;5034961;28;20141;-72
2022/11/30 12:08:20;;;;;;;3.28;2.20;;;;;;;;;;5034423;28;20500;-69
2022/11/30 12:10:49;;;;;;;5.03;2.53;;;;;;;;;;5036012;28;20117;-69
2022/11/30 12:13:17;;;;;;;2.55;1.65;;;;;;;;;;5037239;28;20041;-69
2022/11/30 12:15:44;;;;;;;3.70;2.08;;;;;;;;;;5035976;28;20041;-69
2022/11/30 12:18:15;;;;;;;4.75;2.92;;;;;;;;;;5033889;28;20087;-69
2022/11/30 12:20:53;;;;;;;6.47;3.00;;;;;;;;;;5037026;28;20068;-69
2022/11/30 12:23:29;;;;;;;2.97;1.75;;;;;;;;;;5036732;28;20099;-69
2022/11/30 12:25:58;;;;;;;5.07;2.25;;;;;;;;;;5036619;28;20492;-69
2022/11/30 12:28:40;;;;;;;4.00;2.40;;;;;;;;;;5036688;28;20049;-69
2022/11/30 12:31:17;;;;;;;7.57;3.03;;;;;;;;;;5036847;28;20057;-69
2022/11/30 12:34:05;;;;;;;15.00;5.82;;;;;;;;;;5037692;28;20060;-69
2022/11/30 12:36:41;;;;;;;6.70;3.33;;;;;;;;;;5036311;28;20048;-69
2022/11/30 12:39:22;;;;;;;6.68;3.20;;;;;;;;;;5037156;28;20072;-69
2022/11/30 12:41:54;;;;;;;4.88;2.28;;;;;;;;;;5036634;28;20053;-69
2022/11/30 12:44:21;;;;;;;3.72;2.10;;;;;;;;;;5036679;28;20030;-69
2022/11/30 12:47:05;;;;;;;5.85;2.67;;;;;;;;;;5035902;28;20039;-70
2022/11/30 12:49:41;;;;;;;6.53;2.65;;;;;;;;;;5036536;28;20049;-70
2022/11/30 12:52:23;;;;;;;9.57;4.13;;;;;;;;;;5036500;28;20091;-73
2022/11/30 12:54:59;;;;;;;3.53;2.30;;;;;;;;;;5034601;28;20048;-71
2022/11/30 12:57:37;;;;;;;10.13;4.97;;;;;;;;;;5030452;28;20119;-70
2022/11/30 13:00:04;;;;;;;10.32;4.93;;;;;;;;;;5025529;28;20044;-70
2022/11/30 13:02:48;;;;;;;12.05;5.65;;;;;;;;;;5016546;28;20497;-70
2022/11/30 13:05:21;;;;;;;11.45;5.10;;;;;;;;;;5019794;28;20519;-70
2022/11/30 13:07:56;;;;;;;10.38;5.07;;;;;;;;;;5036035;28;20045;-69
2022/11/30 13:10:40;;;;;;;10.48;4.90;;;;;;;;;;5035871;28;20053;-70
2022/11/30 13:13:11;;;;;;;7.38;4.35;;;;;;;;;;5036324;28;20127;-69
2022/11/30 13:15:38;;;;;;;8.77;5.35;;;;;;;;;;5036407;28;20042;-69
2022/11/30 13:18:06;;;;;;;6.05;4.80;;;;;;;;;;5036882;28;20521;-69
2022/11/30 13:20:32;;;;;;;8.20;4.25;;;;;;;;;;5055162;28;20068;-69
2022/11/30 13:22:58;;;;;;;7.43;4.60;;;;;;;;;;5055506;28;20135;-69
2022/11/30 13:25:31;;;;;;;122.90;58.05;;;;;;;;;;5055177;28;20544;-69
2022/11/30 13:27:57;;;;;;;9.07;6.72;;;;;;;;;;5053744;28;20091;-69
2022/11/30 13:30:44;;;;;;;6.78;5.55;;;;;;;;;;5008070;28;20464;-69
2022/11/30 13:33:28;;;;;;;10.98;5.80;;;;;;;;;;5029017;28;20041;-69
2022/11/30 13:35:55;;;;;;;15.57;8.73;;;;;;;;;;5032925;28;20052;-69
2022/11/30 13:38:21;;;;;;;11.38;6.15;;;;;;;;;;5032827;28;20526;-69
2022/11/30 13:40:58;;;;;;;10.77;6.07;;;;;;;;;;5033497;28;20566;-69
2022/11/30 13:43:25;;;;;;;16.73;6.53;;;;;;;;;;5030519;28;20044;-69
2022/11/30 13:46:13;;;;;;;11.30;5.70;;;;;;;;;;5033481;28;20037;-69
2022/11/30 13:48:41;;;;;;;10.20;5.65;;;;;;;;;;5031581;28;20545;-69
2022/11/30 13:51:07;;;;;;;8.60;5.90;;;;;;;;;;5033396;28;20048;-69
2022/11/30 13:53:36;;;;;;;11.57;6.07;;;;;;;;;;5030101;28;20045;-69
2022/11/30 13:56:02;;;;;;;9.25;5.95;;;;;;;;;;5033203;28;20503;-69
2022/11/30 13:58:29;;;;;;;7.93;5.50;;;;;;;;;;5032849;28;20049;-69
2022/11/30 14:01:01;;;;;;;8.60;6.70;;;;;;;;;;5033310;28;20041;-69
2022/11/30 14:03:28;;;;;;;24.55;14.95;;;;;;;;;;5026461;28;20099;-69
2022/11/30 14:06:01;;;;;;;9.23;6.70;;;;;;;;;;5028061;28;20058;-70
2022/11/30 14:08:32;;;;;;;12.60;6.60;;;;;;;;;;5022218;28;20090;-69
2022/11/30 14:11:17;;;;;;;11.88;6.38;;;;;;;;;;5015619;28;20049;-69
2022/11/30 14:13:43;;;;;;;10.57;7.13;;;;;;;;;;5019724;28;20045;-69
2022/11/30 14:16:26;;;;;;;13.25;7.50;;;;;;;;;;5019937;28;20077;-69
2022/11/30 14:18:52;;;;;;;17.95;11.00;;;;;;;;;;5021643;28;20042;-69
2022/11/30 14:21:37;;;;;;;82.30;52.65;;;;;;;;;;5025344;28;20053;-69
2022/11/30 14:24:07;;;;;;;190.93;118.65;;;;;;;;;;5007230;28;20049;-69
2022/11/30 14:26:38;;;;;;;21.23;12.00;;;;;;;;;;5012557;28;20037;-69
2022/11/30 14:29:10;;;;;;;19.15;15.27;;;;;;;;;;5020739;28;20081;-69
2022/11/30 14:31:42;;;;;;;63.80;54.55;;;;;;;;;;5022342;28;20057;-69
2022/11/30 14:34:13;;;;;;;13.73;7.80;;;;;;;;;;5019557;28;20045;-69
2022/11/30 14:36:48;;;;;;;12.70;7.50;;;;;;;;;;5018113;28;20041;-70
2022/11/30 14:42:35;;;;;;;;;;;;;;;;;;;;;
2022/11/30 14:48:39;;;;;;;10.38;7.13;;;;;;;;;;5017016;28;20112;-69
2022/11/30 14:51:26;;;;;;;13.43;9.77;;;;;;;;;;4983129;28;20046;-69
2022/11/30 14:54:24;;;;;;;27.65;12.93;;;;;;;;;;5001343;28;20048;-69
2022/11/30 14:56:52;;;;;;;1226.45;687.10;;;;;;;;;;5031278;28;20052;-68
2022/11/30 14:59:37;;;;;;;97.72;71.85;;;;;;;;;;5008543;28;20066;-69
2022/11/30 15:02:04;;;;;;;21.02;13.98;;;;;;;;;;4994142;28;20041;-68
2022/11/30 15:04:30;;;;;;;88.43;43.55;;;;;;;;;;5011271;28;20045;-68
2022/11/30 15:07:10;;;;;;;13.25;8.57;;;;;;;;;;5029721;28;20084;-68
2022/11/30 15:10:02;;;;;;;35.10;23.17;;;;;;;;;;5027159;28;20132;-69
2022/11/30 15:12:28;;;;;;;30.98;17.30;;;;;;;;;;5050628;28;20083;-69
2022/11/30 15:15:05;;;;;;;13.73;8.43;;;;;;;;;;5033290;28;20043;-68
2022/11/30 15:17:31;;;;;;;13.32;7.75;;;;;;;;;;5032958;28;20073;-68
2022/11/30 15:19:57;;;;;;;13.07;7.68;;;;;;;;;;5032726;28;20392;-68
2022/11/30 15:22:23;;;;;;;10.57;6.78;;;;;;;;;;5033135;28;20125;-68
2022/11/30 15:24:50;;;;;;;9.27;6.15;;;;;;;;;;5036910;28;20055;-68
2022/11/30 15:27:21;;;;;;;9.25;6.60;;;;;;;;;;5039314;28;20053;-68
2022/11/30 15:29:53;;;;;;;11.23;7.43;;;;;;;;;;5032725;28;20053;-69
2022/11/30 15:32:24;;;;;;;13.55;8.45;;;;;;;;;;5032415;28;20049;-68
2022/11/30 15:35:19;;;;;;;11.15;7.93;;;;;;;;;;5031722;28;20041;-68
2022/11/30 15:37:46;;;;;;;16.80;9.63;;;;;;;;;;5002345;28;20537;-68
2022/11/30 15:40:21;;;;;;;19.80;9.43;;;;;;;;;;5033564;28;20041;-68
2022/11/30 15:42:51;;;;;;;13.38;8.52;;;;;;;;;;5032276;28;20033;-69
2022/11/30 15:45:17;;;;;;;19.85;10.00;;;;;;;;;;5014243;28;20450;-68
2022/11/30 15:47:43;;;;;;;17.50;9.00;;;;;;;;;;5033076;28;20043;-68
2022/11/30 15:50:20;;;;;;;13.68;8.77;;;;;;;;;;5032822;28;20128;-68
2022/11/30 15:52:47;;;;;;;15.98;9.63;;;;;;;;;;5029201;28;20045;-68
2022/11/30 15:55:32;;;;;;;21.88;12.25;;;;;;;;;;5013520;28;20034;-68
2022/11/30 15:58:02;;;;;;;15.07;10.00;;;;;;;;;;4998964;28;20152;-68
2022/11/30 16:00:28;;;;;;;22.73;11.35;;;;;;;;;;5032641;28;20527;-68
2022/11/30 16:03:08;;;;;;;78.45;43.15;;;;;;;;;;5037062;28;20034;-68
2022/11/30 16:05:34;;;;;;;23.13;12.95;;;;;;;;;;5023265;28;20129;-70
2022/11/30 16:08:05;;;;;;;87.80;45.20;;;;;;;;;;5016630;28;20058;-67
2022/11/30 16:10:40;;;;;;;32.35;16.85;;;;;;;;;;5028976;28;20053;-68
2022/11/30 16:13:06;;;;;;;95.88;51.47;;;;;;;;;;5036497;28;20049;-68
2022/11/30 16:15:38;;;;;;;28.02;16.08;;;;;;;;;;5035441;28;20465;-68
2022/11/30 16:18:16;;;;;;;31.45;15.82;;;;;;;;;;5018891;28;20562;-68
2022/11/30 16:20:47;;;;;;;30.08;17.85;;;;;;;;;;5010796;28;20043;-68
2022/11/30 16:23:14;;;;;;;;;;;;;;;;;;5056809;28;20045;-68
2022/11/30 16:25:58;;;;;;;33.30;16.85;;;;;;;;;;5055198;28;19912;-68
2022/11/30 16:28:25;;;;;;;12.18;7.93;;;;;;;;;;5031286;28;20087;-68
2022/11/30 16:30:53;;;;;;;18.95;11.43;;;;;;;;;;5035915;28;20111;-67
2022/11/30 16:33:21;;;;;;;22.15;13.85;;;;;;;;;;5036587;28;20594;-68
2022/11/30 16:35:50;;;;;;;27.83;14.85;;;;;;;;;;5035452;28;20168;-68
2022/11/30 16:38:17;;;;;;;16.90;11.95;;;;;;;;;;5035643;28;20042;-68
2022/11/30 16:40:50;;;;;;;36.00;18.63;;;;;;;;;;5035277;28;20053;-68
2022/11/30 16:43:17;;;;;;;24.58;14.65;;;;;;;;;;5018103;28;20049;-68
2022/11/30 16:45:45;;;;;;;23.45;14.35;;;;;;;;;;5030489;28;20042;-66
2022/11/30 16:48:12;;;;;;;19.98;11.90;;;;;;;;;;5035791;28;20473;-68
2022/11/30 16:50:38;;;;;;;16.23;10.65;;;;;;;;;;5036262;28;20053;-68
2022/11/30 16:53:04;;;;;;;11.70;8.70;;;;;;;;;;5036249;28;20037;-68
2022/11/30 16:55:33;;;;;;;14.70;9.93;;;;;;;;;;5036216;28;20041;-68
2022/11/30 16:58:00;;;;;;;29.23;15.23;;;;;;;;;;5036253;28;20048;-68
2022/11/30 17:00:27;;;;;;;39.53;18.48;;;;;;;;;;5036399;28;20049;-68
2022/11/30 17:02:56;;;;;;;39.90;18.33;;;;;;;;;;5036332;28;20040;-68
2022/11/30 17:05:22;;;;;;;33.88;16.60;;;;;;;;;;5036235;28;20034;-68
2022/11/30 17:07:48;;;;;;;14.38;10.88;;;;;;;;;;5036000;28;20057;-68
2022/11/30 17:10:14;;;;;;;38.08;16.13;;;;;;;;;;5020221;28;20106;-68
2022/11/30 17:12:41;;;;;;;35.85;16.60;;;;;;;;;;5034337;28;20042;-68
2022/11/30 17:15:10;;;;;;;16.50;10.82;;;;;;;;;;5034805;28;20037;-68
2022/11/30 17:17:36;;;;;;;14.10;10.25;;;;;;;;;;5035201;28;20500;-68
2022/11/30 17:20:03;;;;;;;12.75;9.85;;;;;;;;;;5034595;28;20045;-68
2022/11/30 17:22:29;;;;;;;15.77;11.27;;;;;;;;;;5034745;28;20050;-69
2022/11/30 17:24:56;;;;;;;15.25;10.75;;;;;;;;;;5034753;28;20041;-69
2022/11/30 17:27:22;;;;;;;16.50;11.43;;;;;;;;;;5034383;28;20560;-69
2022/11/30 17:29:48;;;;;;;17.08;12.02;;;;;;;;;;5034674;28;20127;-69
2022/11/30 17:32:14;;;;;;;25.35;21.17;;;;;;;;;;5035173;28;20041;-68
2022/11/30 17:34:40;;;;;;;22.48;15.20;;;;;;;;;;5034560;28;20168;-68
2022/11/30 17:37:06;;;;;;;17.67;14.82;;;;;;;;;;5034849;28;20033;-69
2022/11/30 17:39:32;;;;;;;15.57;10.95;;;;;;;;;;5032008;28;20044;-69
2022/11/30 17:41:58;;;;;;;12.15;9.75;;;;;;;;;;5034714;28;20076;-68
2022/11/30 17:44:25;;;;;;;16.90;11.10;;;;;;;;;;5035002;28;20038;-68
2022/11/30 17:46:51;;;;;;;334.30;157.65;;;;;;;;;;5034880;28;20095;-68
2022/11/30 17:49:17;;;;;;;102.35;57.70;;;;;;;;;;5034493;28;20041;-69
2022/11/30 17:51:43;;;;;;;61.20;42.83;;;;;;;;;;5034618;28;20535;-68
2022/11/30 17:54:10;;;;;;;35.08;23.10;;;;;;;;;;5034126;28;20112;-68
2022/11/30 17:56:36;;;;;;;35.78;25.38;;;;;;;;;;5034852;28;20045;-68
2022/11/30 17:59:03;;;;;;;23.13;16.42;;;;;;;;;;5034994;28;20037;-69
2022/11/30 18:01:29;;;;;;;193.00;126.30;;;;;;;;;;5034507;28;20073;-68
2022/11/30 18:03:56;;;;;;;43.95;31.75;;;;;;;;;;5034667;28;20082;-68
2022/11/30 18:06:23;;;;;;;24.80;17.95;;;;;;;;;;5016799;28;20053;-68
2022/11/30 18:08:49;;;;;;;337.48;215.60;;;;;;;;;;5033099;28;20045;-68
2022/11/30 18:11:17;;;;;;;133.15;90.20;;;;;;;;;;5039404;28;20072;-68
2022/11/30 18:13:43;;;;;;;32.80;23.80;;;;;;;;;;5038389;28;20061;-68
2022/11/30 18:16:11;;;;;;;55.58;36.17;;;;;;;;;;5033109;28;20053;-68
2022/11/30 18:18:38;;;;;;;182.88;97.18;;;;;;;;;;5033824;28;20037;-68
2022/11/30 18:21:08;;;;;;;318.88;180.38;;;;;;;;;;5033576;28;20041;-68
2022/11/30 18:23:34;;;;;;;35.33;21.17;;;;;;;;;;5032192;28;20100;-68
2022/11/30 18:26:01;;;;;;;38.47;25.00;;;;;;;;;;5033102;28;20048;-69
2022/11/30 18:28:28;;;;;;;17.50;12.68;;;;;;;;;;5033300;28;20038;-67
2022/11/30 18:30:54;;;;;;;34.38;22.20;;;;;;;;;;5033701;28;20037;-68
2022/11/30 18:33:20;;;;;;;57.30;39.90;;;;;;;;;;5033978;28;20049;-67
2022/11/30 18:35:46;;;;;;;25.50;17.77;;;;;;;;;;5033444;28;20037;-67
2022/11/30 18:38:12;;;;;;;16.45;11.23;;;;;;;;;;5033056;28;20040;-67
2022/11/30 18:40:38;;;;;;;25.35;17.88;;;;;;;;;;5033693;28;20090;-67
2022/11/30 18:43:05;;;;;;;125.15;81.50;;;;;;;;;;5034072;28;20132;-67
2022/11/30 18:45:36;;;;;;;18.42;12.07;;;;;;;;;;5033097;28;20053;-67
2022/11/30 18:48:01;;;;;;;;;;;;;;;;;;5034363;28;20107;-67
2022/11/30 18:50:28;;;;;;;17.50;10.20;;;;;;;;;;5033918;28;19952;-67
2022/11/30 18:52:55;;;;;;;13.02;10.02;;;;;;;;;;5032349;28;20037;-67
2022/11/30 18:55:22;;;;;;;348.73;226.75;;;;;;;;;;5033761;28;20042;-67
2022/11/30 18:57:48;;;;;;;31.52;23.48;;;;;;;;;;5033724;28;20033;-67